Ms-hammaritha — PF2437 — position and weather

sailwx.info

Track history (hours):
 
Tides and Currents Weather Stations Pressure Air Temp Water Temp Dewpoint Dewpoint Depression Visibility Wind Speed Wind Dir Waves Ship Positions

Ms-hammaritha

Last reported at 2014-Jul-28 13:33 UTC. Time now 2014-Jul-28 14:25 UTC.
Position N 51°29' E 004°03'.

Length 86 m.

Type: Ship. MMSI: 244700691.

Date/timePositionNaut miles runAvg speedWind from/ knotsBaromVisibWave heightAir tempDewpointWater temp
2014-Jul-28 13:33N 51°29' E 004°03'0 0.0
2014-Jul-28 12:33N 51°29' E 004°03'0 0.0
2014-Jul-28 11:32N 51°29' E 004°03'3 2.9
2014-Jul-28 10:33N 51°31' E 004°01'5 4.4
2014-Jul-28 09:28N 51°36' E 004°01'6 5.4
2014-Jul-28 08:23N 51°40' E 004°09'0 0.0
2014-Jul-28 07:27N 51°40' E 004°09'1 0.7
2014-Jul-28 06:30N 51°40' E 004°10'6 5.9
2014-Jul-28 05:31N 51°40' E 004°19'5 0.7
2014-Jul-27 23:08N 51°42' E 004°25'0 0.0
2014-Jul-27 21:09N 51°42' E 004°25'0 0.0
2014-Jul-27 19:30N 51°42' E 004°25'0 0.0
2014-Jul-27 15:08N 51°42' E 004°25'5 0.2
2014-Jul-26 15:33N 51°42' E 004°33'6 6.3
2014-Jul-26 14:33N 51°48' E 004°37'2 1.7
2014-Jul-26 13:33N 51°49' E 004°40'1 1.4
2014-Jul-26 12:33N 51°50' E 004°40'3 3.5
2014-Jul-26 11:33N 51°54' E 004°41'7 7.2
2014-Jul-26 10:34N 51°56' E 004°52'6 6.4
2014-Jul-26 09:33N 51°58' E 005°02'4 4.1
2014-Jul-26 08:33N 52°01' E 005°07'0 0.3
2014-Jul-26 07:33N 52°01' E 005°07'0 0.0
2014-Jul-26 06:33N 52°01' E 005°07'0 0.0
2014-Jul-26 05:34N 52°01' E 005°07'0 0.0
2014-Jul-26 04:34N 52°01' E 005°07'0 0.0
2014-Jul-26 03:33N 52°01' E 005°07'0 0.0
2014-Jul-26 02:34N 52°01' E 005°07'0 0.0
2014-Jul-26 01:33N 52°01' E 005°07'0 0.0
2014-Jul-26 00:33N 52°01' E 005°07'0 0.0
2014-Jul-25 23:33N 52°01' E 005°07'0 0.0
2014-Jul-25 22:33N 52°01' E 005°07'0 0.0
2014-Jul-25 21:33N 52°01' E 005°07'0 0.0
2014-Jul-25 20:33N 52°01' E 005°07'0 0.0
2014-Jul-25 19:33N 52°01' E 005°07'0 0.0
2014-Jul-25 11:33N 52°01' E 005°07'0 0.0
2014-Jul-25 10:33N 52°01' E 005°07'0 0.0
2014-Jul-25 09:33N 52°01' E 005°07'0 0.0
2014-Jul-25 08:33N 52°01' E 005°07'0 0.0
2014-Jul-25 07:33N 52°01' E 005°07'0 0.0
2014-Jul-25 06:33N 52°01' E 005°07'0 0.0
2014-Jul-25 05:33N 52°01' E 005°07'0 0.0
2014-Jul-25 04:33N 52°01' E 005°07'0 0.0
2014-Jul-25 03:33N 52°01' E 005°07'0 0.0
2014-Jul-25 02:33N 52°01' E 005°07'0 0.0
2014-Jul-25 01:33N 52°01' E 005°07'0 0.0
2014-Jul-25 00:33N 52°01' E 005°07'0 0.0
2014-Jul-24 23:33N 52°01' E 005°07'0 0.0
2014-Jul-24 22:33N 52°01' E 005°07'0 0.0
2014-Jul-24 21:33N 52°01' E 005°07'0 0.0
2014-Jul-24 20:33N 52°01' E 005°07'0 0.0
2014-Jul-24 19:33N 52°01' E 005°07'0 0.0
2014-Jul-24 18:33N 52°01' E 005°07'0 0.0
2014-Jul-24 17:33N 52°01' E 005°07'0 0.0
2014-Jul-24 16:33N 52°01' E 005°07'0 0.0
2014-Jul-24 15:33N 52°01' E 005°07'0 0.0
2014-Jul-24 14:33N 52°01' E 005°07'0 0.0
2014-Jul-24 13:33N 52°01' E 005°07'0 0.0
2014-Jul-24 12:33N 52°01' E 005°07'0 0.0
2014-Jul-24 11:33N 52°01' E 005°07'0 0.0
2014-Jul-24 10:32N 52°01' E 005°07'0 0.0
2014-Jul-24 09:33N 52°01' E 005°07'0 0.0
2014-Jul-24 08:33N 52°01' E 005°07'0 0.0
2014-Jul-24 07:33N 52°01' E 005°07'0 0.0
2014-Jul-24 06:33N 52°01' E 005°07'0 0.0
2014-Jul-24 05:33N 52°01' E 005°07'0 0.0
2014-Jul-24 04:33N 52°01' E 005°07'0 0.0
2014-Jul-24 03:34N 52°01' E 005°07'0 0.0
2014-Jul-24 02:33N 52°01' E 005°07'0 0.0
2014-Jul-24 01:33N 52°01' E 005°07'0 0.0
2014-Jul-24 00:33N 52°01' E 005°07'0 0.0
2014-Jul-23 23:33N 52°01' E 005°07'0 0.0
2014-Jul-23 22:33N 52°01' E 005°07'0 0.0
2014-Jul-23 21:33N 52°01' E 005°07'0 0.0
2014-Jul-23 20:33N 52°01' E 005°07'0 0.0
2014-Jul-23 19:33N 52°01' E 005°07'0 0.0
2014-Jul-23 18:32N 52°01' E 005°07'0 0.0
2014-Jul-23 17:33N 52°01' E 005°07'0 0.0
2014-Jul-23 16:33N 52°01' E 005°07'0 0.0
2014-Jul-23 15:32N 52°01' E 005°07'0 0.0
2014-Jul-23 14:32N 52°01' E 005°07'0 0.0
2014-Jul-23 13:33N 52°01' E 005°07'0 0.0
2014-Jul-23 12:33N 52°01' E 005°07'0 0.0
2014-Jul-23 11:33N 52°01' E 005°07'0 0.0
2014-Jul-23 10:33N 52°01' E 005°07'0 0.0
2014-Jul-23 09:33N 52°01' E 005°07'0 0.0
2014-Jul-23 08:33N 52°01' E 005°07'0 0.0
2014-Jul-23 07:33N 52°01' E 005°07'0 0.0
2014-Jul-23 06:33N 52°01' E 005°07'0 0.0
2014-Jul-23 05:33N 52°01' E 005°07'0 0.0
2014-Jul-23 04:33N 52°01' E 005°07'0 0.0
2014-Jul-23 03:33N 52°01' E 005°07'0 0.0
2014-Jul-23 02:33N 52°01' E 005°07'0 0.0
2014-Jul-23 01:33N 52°01' E 005°07'0 0.0
2014-Jul-23 00:33N 52°01' E 005°07'0 0.0
2014-Jul-22 23:33N 52°01' E 005°07'0 0.0
2014-Jul-22 22:34N 52°01' E 005°07'0 0.0
2014-Jul-22 21:33N 52°01' E 005°07'0 0.0
2014-Jul-22 20:33N 52°01' E 005°07'0 0.0
2014-Jul-22 19:33N 52°01' E 005°07'0 0.0
2014-Jul-22 18:34N 52°01' E 005°07'0 0.0
2014-Jul-22 17:33N 52°01' E 005°07'0 0.0
2014-Jul-22 16:33N 52°01' E 005°07'0 0.0
2014-Jul-22 15:34N 52°01' E 005°07'0 0.0
2014-Jul-22 14:34N 52°01' E 005°07'0 0.0
2014-Jul-22 13:34N 52°01' E 005°07'0 0.0
2014-Jul-22 12:33N 52°01' E 005°07'0 0.0
2014-Jul-22 11:33N 52°01' E 005°07'0 0.0
2014-Jul-22 10:34N 52°01' E 005°07'0 0.0
2014-Jul-22 09:33N 52°01' E 005°07'0 0.0
2014-Jul-22 08:33N 52°01' E 005°07'0 0.0
2014-Jul-22 07:34N 52°01' E 005°07'0 0.0
2014-Jul-22 06:33N 52°01' E 005°07'0 0.0
2014-Jul-22 05:34N 52°01' E 005°07'0 0.0
2014-Jul-22 04:34N 52°01' E 005°07'0 0.0
2014-Jul-22 03:34N 52°01' E 005°07'0 0.0
2014-Jul-22 02:33N 52°01' E 005°07'0 0.0
2014-Jul-22 01:33N 52°01' E 005°07'0 0.0
2014-Jul-22 00:33N 52°01' E 005°07'0 0.0
2014-Jul-21 23:33N 52°01' E 005°07'0 0.0
2014-Jul-21 22:34N 52°01' E 005°07'0 0.0
2014-Jul-21 21:34N 52°01' E 005°07'0 0.0
2014-Jul-21 20:33N 52°01' E 005°07'0 0.0
2014-Jul-21 20:18N 52°01' E 005°07'0 0.0
2014-Jul-21 19:33N 52°01' E 005°07'0 0.0
2014-Jul-21 18:34N 52°01' E 005°07'0 0.0
2014-Jul-21 17:34N 52°01' E 005°07'0 0.0
2014-Jul-21 16:34N 52°01' E 005°07'0 0.0
2014-Jul-21 15:34N 52°01' E 005°07'0 0.0
2014-Jul-21 14:33N 52°01' E 005°07'0 0.0
2014-Jul-21 13:34N 52°01' E 005°07'0 0.0
2014-Jul-21 12:33N 52°01' E 005°07'0 0.0
2014-Jul-21 11:33N 52°01' E 005°07'0 0.0
2014-Jul-21 10:33N 52°01' E 005°07'0 0.0
2014-Jul-21 09:33N 52°01' E 005°07'0 0.0
2014-Jul-21 08:34N 52°01' E 005°07'0 0.0
2014-Jul-21 07:34N 52°01' E 005°07'0 0.0
2014-Jul-21 06:34N 52°01' E 005°07'0 0.0
2014-Jul-21 05:34N 52°01' E 005°07'0 0.0
2014-Jul-21 04:34N 52°01' E 005°07'0 0.0
2014-Jul-21 03:33N 52°01' E 005°07'0 0.0
2014-Jul-21 02:34N 52°01' E 005°07'0 0.0
2014-Jul-21 01:34N 52°01' E 005°07'0 0.0
2014-Jul-21 00:34N 52°01' E 005°07'0 0.0
2014-Jul-20 23:34N 52°01' E 005°07'0 0.0
2014-Jul-20 22:34N 52°01' E 005°07'0 0.0
2014-Jul-20 21:34N 52°01' E 005°07'0 0.0
2014-Jul-20 20:33N 52°01' E 005°07'0 0.0
2014-Jul-20 19:34N 52°01' E 005°07'0 0.0
2014-Jul-20 18:34N 52°01' E 005°07'0 0.0
2014-Jul-20 17:33N 52°01' E 005°07'0 0.0
2014-Jul-20 16:34N 52°01' E 005°07'0 0.0
2014-Jul-20 15:33N 52°01' E 005°07'0 0.0
2014-Jul-20 14:33N 52°01' E 005°07'0 0.0
2014-Jul-20 13:33N 52°01' E 005°07'0 0.0
2014-Jul-20 12:34N 52°01' E 005°07'0 0.0
2014-Jul-20 11:33N 52°01' E 005°07'0 0.0
2014-Jul-20 10:34N 52°01' E 005°07'0 0.0
2014-Jul-20 09:34N 52°01' E 005°07'0 0.0
2014-Jul-20 08:33N 52°01' E 005°07'0 0.0
2014-Jul-20 07:33N 52°01' E 005°07'0 0.0
2014-Jul-20 06:33N 52°01' E 005°07'0 0.0
2014-Jul-20 05:34N 52°01' E 005°07'0 0.0
2014-Jul-20 04:34N 52°01' E 005°07'0 0.0
2014-Jul-20 03:34N 52°01' E 005°07'0 0.0
2014-Jul-20 02:34N 52°01' E 005°07'0 0.0
2014-Jul-20 01:34N 52°01' E 005°07'0 0.0
2014-Jul-20 00:34N 52°01' E 005°07'0 0.0
2014-Jul-19 23:34N 52°01' E 005°07'0 0.0
2014-Jul-19 22:33N 52°01' E 005°07'0 0.0
2014-Jul-19 21:34N 52°01' E 005°07'0 0.0
2014-Jul-19 20:33N 52°01' E 005°07'0 0.0
2014-Jul-19 19:33N 52°01' E 005°07'0 0.0
2014-Jul-19 18:34N 52°01' E 005°07'0 0.0
2014-Jul-19 17:33N 52°01' E 005°07'0 0.0
2014-Jul-19 16:34N 52°01' E 005°07'0 0.0
2014-Jul-19 15:34N 52°01' E 005°07'0 0.0
2014-Jul-19 14:33N 52°01' E 005°07'0 0.0
2014-Jul-19 13:32N 52°01' E 005°07'0 0.0
2014-Jul-19 12:34N 52°01' E 005°07'0 0.0
2014-Jul-19 11:34N 52°01' E 005°07'0 0.0
2014-Jul-19 10:34N 52°01' E 005°07'0 0.0
2014-Jul-19 09:34N 52°01' E 005°07'0 0.0
2014-Jul-19 08:34N 52°01' E 005°07'0 0.0
2014-Jul-19 07:34N 52°01' E 005°07'0 0.0
2014-Jul-19 06:33N 52°01' E 005°07'0 0.0
2014-Jul-19 05:33N 52°01' E 005°07'0 0.0
2014-Jul-19 04:33N 52°01' E 005°07'0 0.0
2014-Jul-19 03:33N 52°01' E 005°07'0 0.0
2014-Jul-19 02:34N 52°01' E 005°07'0 0.0
2014-Jul-19 01:34N 52°01' E 005°07'0 0.0
2014-Jul-19 00:33N 52°01' E 005°07'0 0.0
2014-Jul-18 23:33N 52°01' E 005°07'0 0.0
2014-Jul-18 22:34N 52°01' E 005°07'0 0.0
2014-Jul-18 21:33N 52°01' E 005°07'0 0.0
2014-Jul-18 20:33N 52°01' E 005°07'0 0.0
2014-Jul-18 19:33N 52°01' E 005°07'0 0.0
2014-Jul-18 18:34N 52°01' E 005°07'0 0.0
2014-Jul-18 17:34N 52°01' E 005°07'0 0.0
2014-Jul-18 16:33N 52°01' E 005°07'3 3.2
2014-Jul-18 15:33N 52°04' E 005°05'6 5.6
2014-Jul-18 14:27N 52°09' E 004°60'  
Track history (hours):
 
Tides and Currents Weather Stations Pressure Air Temp Water Temp Dewpoint Dewpoint Depression Visibility Wind Speed Wind Dir Waves Ship Positions

Ms-hammaritha

Last reported at 2014-Jul-28 13:33 UTC. Time now 2014-Jul-28 14:25 UTC.
Position N 51°29' E 004°03'.

Length 86 m.

Type: Ship. MMSI: 244700691.

Date/timePositionNaut miles runAvg speedWind from/ knotsBaromVisibWave heightAir tempDewpointWater temp
2014-Jul-28 13:33N 51°29' E 004°03'0 0.0
2014-Jul-28 12:33N 51°29' E 004°03'0 0.0
2014-Jul-28 11:32N 51°29' E 004°03'3 2.9
2014-Jul-28 10:33N 51°31' E 004°01'5 4.4
2014-Jul-28 09:28N 51°36' E 004°01'6 5.4
2014-Jul-28 08:23N 51°40' E 004°09'0 0.0
2014-Jul-28 07:27N 51°40' E 004°09'1 0.7
2014-Jul-28 06:30N 51°40' E 004°10'6 5.9
2014-Jul-28 05:31N 51°40' E 004°19'5 0.7
2014-Jul-27 23:08N 51°42' E 004°25'0 0.0
2014-Jul-27 21:09N 51°42' E 004°25'0 0.0
2014-Jul-27 19:30N 51°42' E 004°25'0 0.0
2014-Jul-27 15:08N 51°42' E 004°25'5 0.2
2014-Jul-26 15:33N 51°42' E 004°33'6 6.3
2014-Jul-26 14:33N 51°48' E 004°37'2 1.7
2014-Jul-26 13:33N 51°49' E 004°40'1 1.4
2014-Jul-26 12:33N 51°50' E 004°40'3 3.5
2014-Jul-26 11:33N 51°54' E 004°41'7 7.2
2014-Jul-26 10:34N 51°56' E 004°52'6 6.4
2014-Jul-26 09:33N 51°58' E 005°02'4 4.1
2014-Jul-26 08:33N 52°01' E 005°07'0 0.3
2014-Jul-26 07:33N 52°01' E 005°07'0 0.0
2014-Jul-26 06:33N 52°01' E 005°07'0 0.0
2014-Jul-26 05:34N 52°01' E 005°07'0 0.0
2014-Jul-26 04:34N 52°01' E 005°07'0 0.0
2014-Jul-26 03:33N 52°01' E 005°07'0 0.0
2014-Jul-26 02:34N 52°01' E 005°07'0 0.0
2014-Jul-26 01:33N 52°01' E 005°07'0 0.0
2014-Jul-26 00:33N 52°01' E 005°07'0 0.0
2014-Jul-25 23:33N 52°01' E 005°07'0 0.0
2014-Jul-25 22:33N 52°01' E 005°07'0 0.0
2014-Jul-25 21:33N 52°01' E 005°07'0 0.0
2014-Jul-25 20:33N 52°01' E 005°07'0 0.0
2014-Jul-25 19:33N 52°01' E 005°07'0 0.0
2014-Jul-25 11:33N 52°01' E 005°07'0 0.0
2014-Jul-25 10:33N 52°01' E 005°07'0 0.0
2014-Jul-25 09:33N 52°01' E 005°07'0 0.0
2014-Jul-25 08:33N 52°01' E 005°07'0 0.0
2014-Jul-25 07:33N 52°01' E 005°07'0 0.0
2014-Jul-25 06:33N 52°01' E 005°07'0 0.0
2014-Jul-25 05:33N 52°01' E 005°07'0 0.0
2014-Jul-25 04:33N 52°01' E 005°07'0 0.0
2014-Jul-25 03:33N 52°01' E 005°07'0 0.0
2014-Jul-25 02:33N 52°01' E 005°07'0 0.0
2014-Jul-25 01:33N 52°01' E 005°07'0 0.0
2014-Jul-25 00:33N 52°01' E 005°07'0 0.0
2014-Jul-24 23:33N 52°01' E 005°07'0 0.0
2014-Jul-24 22:33N 52°01' E 005°07'0 0.0
2014-Jul-24 21:33N 52°01' E 005°07'0 0.0
2014-Jul-24 20:33N 52°01' E 005°07'0 0.0
2014-Jul-24 19:33N 52°01' E 005°07'0 0.0
2014-Jul-24 18:33N 52°01' E 005°07'0 0.0
2014-Jul-24 17:33N 52°01' E 005°07'0 0.0
2014-Jul-24 16:33N 52°01' E 005°07'0 0.0
2014-Jul-24 15:33N 52°01' E 005°07'0 0.0
2014-Jul-24 14:33N 52°01' E 005°07'0 0.0
2014-Jul-24 13:33N 52°01' E 005°07'0 0.0
2014-Jul-24 12:33N 52°01' E 005°07'0 0.0
2014-Jul-24 11:33N 52°01' E 005°07'0 0.0
2014-Jul-24 10:32N 52°01' E 005°07'0 0.0
2014-Jul-24 09:33N 52°01' E 005°07'0 0.0
2014-Jul-24 08:33N 52°01' E 005°07'0 0.0
2014-Jul-24 07:33N 52°01' E 005°07'0 0.0
2014-Jul-24 06:33N 52°01' E 005°07'0 0.0
2014-Jul-24 05:33N 52°01' E 005°07'0 0.0
2014-Jul-24 04:33N 52°01' E 005°07'0 0.0
2014-Jul-24 03:34N 52°01' E 005°07'0 0.0
2014-Jul-24 02:33N 52°01' E 005°07'0 0.0
2014-Jul-24 01:33N 52°01' E 005°07'0 0.0
2014-Jul-24 00:33N 52°01' E 005°07'0 0.0
2014-Jul-23 23:33N 52°01' E 005°07'0 0.0
2014-Jul-23 22:33N 52°01' E 005°07'0 0.0
2014-Jul-23 21:33N 52°01' E 005°07'0 0.0
2014-Jul-23 20:33N 52°01' E 005°07'0 0.0
2014-Jul-23 19:33N 52°01' E 005°07'0 0.0
2014-Jul-23 18:32N 52°01' E 005°07'0 0.0
2014-Jul-23 17:33N 52°01' E 005°07'0 0.0
2014-Jul-23 16:33N 52°01' E 005°07'0 0.0
2014-Jul-23 15:32N 52°01' E 005°07'0 0.0
2014-Jul-23 14:32N 52°01' E 005°07'0 0.0
2014-Jul-23 13:33N 52°01' E 005°07'0 0.0
2014-Jul-23 12:33N 52°01' E 005°07'0 0.0
2014-Jul-23 11:33N 52°01' E 005°07'0 0.0
2014-Jul-23 10:33N 52°01' E 005°07'0 0.0
2014-Jul-23 09:33N 52°01' E 005°07'0 0.0
2014-Jul-23 08:33N 52°01' E 005°07'0 0.0
2014-Jul-23 07:33N 52°01' E 005°07'0 0.0
2014-Jul-23 06:33N 52°01' E 005°07'0 0.0
2014-Jul-23 05:33N 52°01' E 005°07'0 0.0
2014-Jul-23 04:33N 52°01' E 005°07'0 0.0
2014-Jul-23 03:33N 52°01' E 005°07'0 0.0
2014-Jul-23 02:33N 52°01' E 005°07'0 0.0
2014-Jul-23 01:33N 52°01' E 005°07'0 0.0
2014-Jul-23 00:33N 52°01' E 005°07'0 0.0
2014-Jul-22 23:33N 52°01' E 005°07'0 0.0
2014-Jul-22 22:34N 52°01' E 005°07'0 0.0
2014-Jul-22 21:33N 52°01' E 005°07'0 0.0
2014-Jul-22 20:33N 52°01' E 005°07'0 0.0
2014-Jul-22 19:33N 52°01' E 005°07'0 0.0
2014-Jul-22 18:34N 52°01' E 005°07'0 0.0
2014-Jul-22 17:33N 52°01' E 005°07'0 0.0
2014-Jul-22 16:33N 52°01' E 005°07'0 0.0
2014-Jul-22 15:34N 52°01' E 005°07'0 0.0
2014-Jul-22 14:34N 52°01' E 005°07'0 0.0
2014-Jul-22 13:34N 52°01' E 005°07'0 0.0
2014-Jul-22 12:33N 52°01' E 005°07'0 0.0
2014-Jul-22 11:33N 52°01' E 005°07'0 0.0
2014-Jul-22 10:34N 52°01' E 005°07'0 0.0
2014-Jul-22 09:33N 52°01' E 005°07'0 0.0
2014-Jul-22 08:33N 52°01' E 005°07'0 0.0
2014-Jul-22 07:34N 52°01' E 005°07'0 0.0
2014-Jul-22 06:33N 52°01' E 005°07'0 0.0
2014-Jul-22 05:34N 52°01' E 005°07'0 0.0
2014-Jul-22 04:34N 52°01' E 005°07'0 0.0
2014-Jul-22 03:34N 52°01' E 005°07'0 0.0
2014-Jul-22 02:33N 52°01' E 005°07'0 0.0
2014-Jul-22 01:33N 52°01' E 005°07'0 0.0
2014-Jul-22 00:33N 52°01' E 005°07'0 0.0
2014-Jul-21 23:33N 52°01' E 005°07'0 0.0
2014-Jul-21 22:34N 52°01' E 005°07'0 0.0
2014-Jul-21 21:34N 52°01' E 005°07'0 0.0
2014-Jul-21 20:33N 52°01' E 005°07'0 0.0
2014-Jul-21 20:18N 52°01' E 005°07'0 0.0
2014-Jul-21 19:33N 52°01' E 005°07'0 0.0
2014-Jul-21 18:34N 52°01' E 005°07'0 0.0
2014-Jul-21 17:34N 52°01' E 005°07'0 0.0
2014-Jul-21 16:34N 52°01' E 005°07'0 0.0
2014-Jul-21 15:34N 52°01' E 005°07'0 0.0
2014-Jul-21 14:33N 52°01' E 005°07'0 0.0
2014-Jul-21 13:34N 52°01' E 005°07'0 0.0
2014-Jul-21 12:33N 52°01' E 005°07'0 0.0
2014-Jul-21 11:33N 52°01' E 005°07'0 0.0
2014-Jul-21 10:33N 52°01' E 005°07'0 0.0
2014-Jul-21 09:33N 52°01' E 005°07'0 0.0
2014-Jul-21 08:34N 52°01' E 005°07'0 0.0
2014-Jul-21 07:34N 52°01' E 005°07'0 0.0
2014-Jul-21 06:34N 52°01' E 005°07'0 0.0
2014-Jul-21 05:34N 52°01' E 005°07'0 0.0
2014-Jul-21 04:34N 52°01' E 005°07'0 0.0
2014-Jul-21 03:33N 52°01' E 005°07'0 0.0
2014-Jul-21 02:34N 52°01' E 005°07'0 0.0
2014-Jul-21 01:34N 52°01' E 005°07'0 0.0
2014-Jul-21 00:34N 52°01' E 005°07'0 0.0
2014-Jul-20 23:34N 52°01' E 005°07'0 0.0
2014-Jul-20 22:34N 52°01' E 005°07'0 0.0
2014-Jul-20 21:34N 52°01' E 005°07'0 0.0
2014-Jul-20 20:33N 52°01' E 005°07'0 0.0
2014-Jul-20 19:34N 52°01' E 005°07'0 0.0
2014-Jul-20 18:34N 52°01' E 005°07'0 0.0
2014-Jul-20 17:33N 52°01' E 005°07'0 0.0
2014-Jul-20 16:34N 52°01' E 005°07'0 0.0
2014-Jul-20 15:33N 52°01' E 005°07'0 0.0
2014-Jul-20 14:33N 52°01' E 005°07'0 0.0
2014-Jul-20 13:33N 52°01' E 005°07'0 0.0
2014-Jul-20 12:34N 52°01' E 005°07'0 0.0
2014-Jul-20 11:33N 52°01' E 005°07'0 0.0
2014-Jul-20 10:34N 52°01' E 005°07'0 0.0
2014-Jul-20 09:34N 52°01' E 005°07'0 0.0
2014-Jul-20 08:33N 52°01' E 005°07'0 0.0
2014-Jul-20 07:33N 52°01' E 005°07'0 0.0
2014-Jul-20 06:33N 52°01' E 005°07'0 0.0
2014-Jul-20 05:34N 52°01' E 005°07'0 0.0
2014-Jul-20 04:34N 52°01' E 005°07'0 0.0
2014-Jul-20 03:34N 52°01' E 005°07'0 0.0
2014-Jul-20 02:34N 52°01' E 005°07'0 0.0
2014-Jul-20 01:34N 52°01' E 005°07'0 0.0
2014-Jul-20 00:34N 52°01' E 005°07'0 0.0
2014-Jul-19 23:34N 52°01' E 005°07'0 0.0
2014-Jul-19 22:33N 52°01' E 005°07'0 0.0
2014-Jul-19 21:34N 52°01' E 005°07'0 0.0
2014-Jul-19 20:33N 52°01' E 005°07'0 0.0
2014-Jul-19 19:33N 52°01' E 005°07'0 0.0
2014-Jul-19 18:34N 52°01' E 005°07'0 0.0
2014-Jul-19 17:33N 52°01' E 005°07'0 0.0
2014-Jul-19 16:34N 52°01' E 005°07'0 0.0
2014-Jul-19 15:34N 52°01' E 005°07'0 0.0
2014-Jul-19 14:33N 52°01' E 005°07'0 0.0
2014-Jul-19 13:32N 52°01' E 005°07'0 0.0
2014-Jul-19 12:34N 52°01' E 005°07'0 0.0
2014-Jul-19 11:34N 52°01' E 005°07'0 0.0
2014-Jul-19 10:34N 52°01' E 005°07'0 0.0
2014-Jul-19 09:34N 52°01' E 005°07'0 0.0
2014-Jul-19 08:34N 52°01' E 005°07'0 0.0
2014-Jul-19 07:34N 52°01' E 005°07'0 0.0
2014-Jul-19 06:33N 52°01' E 005°07'0 0.0
2014-Jul-19 05:33N 52°01' E 005°07'0 0.0
2014-Jul-19 04:33N 52°01' E 005°07'0 0.0
2014-Jul-19 03:33N 52°01' E 005°07'0 0.0
2014-Jul-19 02:34N 52°01' E 005°07'0 0.0
2014-Jul-19 01:34N 52°01' E 005°07'0 0.0
2014-Jul-19 00:33N 52°01' E 005°07'0 0.0
2014-Jul-18 23:33N 52°01' E 005°07'0 0.0
2014-Jul-18 22:34N 52°01' E 005°07'0 0.0
2014-Jul-18 21:33N 52°01' E 005°07'0 0.0
2014-Jul-18 20:33N 52°01' E 005°07'0 0.0
2014-Jul-18 19:33N 52°01' E 005°07'0 0.0
2014-Jul-18 18:34N 52°01' E 005°07'0 0.0
2014-Jul-18 17:34N 52°01' E 005°07'0 0.0
2014-Jul-18 16:33N 52°01' E 005°07'3 3.2
2014-Jul-18 15:33N 52°04' E 005°05'6 5.6
2014-Jul-18 14:27N 52°09' E 004°60'  

Dump ship's entire track history